sensor_id;sensor_type;location;lat;lon;timestamp;temperature;humidity
2389;DHT22;1205;47.984;7.668;2023-12-20T00:00:17;6.60;99.90
2389;DHT22;1205;47.984;7.668;2023-12-20T00:02:43;6.60;99.90
2389;DHT22;1205;47.984;7.668;2023-12-20T00:05:13;6.50;99.90
2389;DHT22;1205;47.984;7.668;2023-12-20T00:07:39;6.60;99.90
2389;DHT22;1205;47.984;7.668;2023-12-20T00:10:04;6.60;99.90
2389;DHT22;1205;47.984;7.668;2023-12-20T00:12:30;6.60;99.90
2389;DHT22;1205;47.984;7.668;2023-12-20T00:14:55;6.70;99.90
2389;DHT22;1205;47.984;7.668;2023-12-20T00:17:21;6.70;99.90
2389;DHT22;1205;47.984;7.668;2023-12-20T00:19:46;6.60;99.90
2389;DHT22;1205;47.984;7.668;2023-12-20T00:22:12;6.60;99.90
2389;DHT22;1205;47.984;7.668;2023-12-20T00:24:37;6.70;99.90
2389;DHT22;1205;47.984;7.668;2023-12-20T00:27:03;6.70;99.90
2389;DHT22;1205;47.984;7.668;2023-12-20T00:29:29;6.70;99.90
2389;DHT22;1205;47.984;7.668;2023-12-20T00:31:54;6.70;99.90
2389;DHT22;1205;47.984;7.668;2023-12-20T00:34:20;6.70;99.90
2389;DHT22;1205;47.984;7.668;2023-12-20T00:36:45;6.70;99.90
2389;DHT22;1205;47.984;7.668;2023-12-20T00:39:11;6.70;99.90
2389;DHT22;1205;47.984;7.668;2023-12-20T00:41:36;6.70;99.90
2389;DHT22;1205;47.984;7.668;2023-12-20T00:44:02;6.70;99.90
2389;DHT22;1205;47.984;7.668;2023-12-20T00:46:28;6.70;99.90
2389;DHT22;1205;47.984;7.668;2023-12-20T00:48:53;6.70;99.90
2389;DHT22;1205;47.984;7.668;2023-12-20T00:51:20;6.70;99.90
2389;DHT22;1205;47.984;7.668;2023-12-20T00:53:45;6.60;99.90
2389;DHT22;1205;47.984;7.668;2023-12-20T00:56:14;6.70;99.90
2389;DHT22;1205;47.984;7.668;2023-12-20T00:58:40;6.70;99.90
2389;DHT22;1205;47.984;7.668;2023-12-20T01:01:05;6.70;99.90
2389;DHT22;1205;47.984;7.668;2023-12-20T01:03:31;6.60;99.90
2389;DHT22;1205;47.984;7.668;2023-12-20T01:05:56;6.60;99.90
2389;DHT22;1205;47.984;7.668;2023-12-20T01:08:22;6.70;99.90
2389;DHT22;1205;47.984;7.668;2023-12-20T01:10:48;6.60;99.90
2389;DHT22;1205;47.984;7.668;2023-12-20T01:13:13;6.60;99.90
2389;DHT22;1205;47.984;7.668;2023-12-20T01:15:39;6.50;99.90
2389;DHT22;1205;47.984;7.668;2023-12-20T01:18:05;6.60;99.90
2389;DHT22;1205;47.984;7.668;2023-12-20T01:20:30;6.60;99.90
2389;DHT22;1205;47.984;7.668;2023-12-20T01:22:56;6.50;99.90
2389;DHT22;1205;47.984;7.668;2023-12-20T01:25:22;6.60;99.90
2389;DHT22;1205;47.984;7.668;2023-12-20T01:27:47;6.60;99.90
2389;DHT22;1205;47.984;7.668;2023-12-20T01:30:13;6.60;99.90
2389;DHT22;1205;47.984;7.668;2023-12-20T01:32:39;6.60;99.90
2389;DHT22;1205;47.984;7.668;2023-12-20T01:35:04;6.50;99.90
2389;DHT22;1205;47.984;7.668;2023-12-20T01:37:30;6.50;99.90
2389;DHT22;1205;47.984;7.668;2023-12-20T01:39:56;6.60;99.90
2389;DHT22;1205;47.984;7.668;2023-12-20T01:42:21;6.60;99.90
2389;DHT22;1205;47.984;7.668;2023-12-20T01:44:47;6.60;99.90
2389;DHT22;1205;47.984;7.668;2023-12-20T01:47:13;6.60;99.90
2389;DHT22;1205;47.984;7.668;2023-12-20T01:49:39;6.60;99.90
2389;DHT22;1205;47.984;7.668;2023-12-20T01:52:05;6.60;99.90
2389;DHT22;1205;47.984;7.668;2023-12-20T01:54:31;6.60;99.90
2389;DHT22;1205;47.984;7.668;2023-12-20T01:56:57;6.60;99.90
2389;DHT22;1205;47.984;7.668;2023-12-20T01:59:23;6.60;99.90
2389;DHT22;1205;47.984;7.668;2023-12-20T02:01:48;6.70;99.90
2389;DHT22;1205;47.984;7.668;2023-12-20T02:04:14;6.70;99.90
2389;DHT22;1205;47.984;7.668;2023-12-20T02:06:40;6.60;99.90
2389;DHT22;1205;47.984;7.668;2023-12-20T02:09:07;6.70;99.90
2389;DHT22;1205;47.984;7.668;2023-12-20T02:11:33;6.60;99.90
2389;DHT22;1205;47.984;7.668;2023-12-20T02:13:58;6.60;99.90
2389;DHT22;1205;47.984;7.668;2023-12-20T02:16:24;6.60;99.90
2389;DHT22;1205;47.984;7.668;2023-12-20T02:18:50;6.70;99.90
2389;DHT22;1205;47.984;7.668;2023-12-20T02:21:15;6.60;99.90
2389;DHT22;1205;47.984;7.668;2023-12-20T02:23:41;6.70;99.90
2389;DHT22;1205;47.984;7.668;2023-12-20T02:26:07;6.70;99.90
2389;DHT22;1205;47.984;7.668;2023-12-20T02:28:33;6.70;99.90
2389;DHT22;1205;47.984;7.668;2023-12-20T02:30:58;6.70;99.90
2389;DHT22;1205;47.984;7.668;2023-12-20T02:33:24;6.70;99.90
2389;DHT22;1205;47.984;7.668;2023-12-20T02:35:50;6.70;99.90
2389;DHT22;1205;47.984;7.668;2023-12-20T02:38:15;6.70;99.90
2389;DHT22;1205;47.984;7.668;2023-12-20T02:40:41;6.70;99.90
2389;DHT22;1205;47.984;7.668;2023-12-20T02:43:06;6.60;99.90
2389;DHT22;1205;47.984;7.668;2023-12-20T02:45:32;6.70;99.90
2389;DHT22;1205;47.984;7.668;2023-12-20T02:47:57;6.70;99.90
2389;DHT22;1205;47.984;7.668;2023-12-20T02:50:23;6.60;99.90
2389;DHT22;1205;47.984;7.668;2023-12-20T02:52:50;6.60;99.90
2389;DHT22;1205;47.984;7.668;2023-12-20T02:55:15;6.70;99.90
2389;DHT22;1205;47.984;7.668;2023-12-20T02:57:41;6.60;99.90
2389;DHT22;1205;47.984;7.668;2023-12-20T03:00:08;6.60;99.90
2389;DHT22;1205;47.984;7.668;2023-12-20T03:02:35;6.70;99.90
2389;DHT22;1205;47.984;7.668;2023-12-20T03:05:01;6.70;99.90
2389;DHT22;1205;47.984;7.668;2023-12-20T03:07:26;6.70;99.90
2389;DHT22;1205;47.984;7.668;2023-12-20T03:09:52;6.70;99.90
2389;DHT22;1205;47.984;7.668;2023-12-20T03:12:17;6.70;99.90
2389;DHT22;1205;47.984;7.668;2023-12-20T03:14:44;6.70;99.90
2389;DHT22;1205;47.984;7.668;2023-12-20T03:17:10;6.70;99.90
2389;DHT22;1205;47.984;7.668;2023-12-20T03:19:35;6.70;99.90
2389;DHT22;1205;47.984;7.668;2023-12-20T03:22:01;6.70;99.90
2389;DHT22;1205;47.984;7.668;2023-12-20T03:24:27;6.70;99.90
2389;DHT22;1205;47.984;7.668;2023-12-20T03:26:52;6.70;99.90
2389;DHT22;1205;47.984;7.668;2023-12-20T03:29:18;6.80;99.90
2389;DHT22;1205;47.984;7.668;2023-12-20T03:31:43;6.70;99.90
2389;DHT22;1205;47.984;7.668;2023-12-20T03:34:09;6.70;99.90
2389;DHT22;1205;47.984;7.668;2023-12-20T03:36:34;6.80;99.90
2389;DHT22;1205;47.984;7.668;2023-12-20T03:39:00;6.70;99.90
2389;DHT22;1205;47.984;7.668;2023-12-20T03:41:25;6.70;99.90
2389;DHT22;1205;47.984;7.668;2023-12-20T03:43:51;6.80;99.90
2389;DHT22;1205;47.984;7.668;2023-12-20T03:46:16;6.80;99.90
2389;DHT22;1205;47.984;7.668;2023-12-20T03:48:42;6.80;99.90
2389;DHT22;1205;47.984;7.668;2023-12-20T03:51:07;6.80;99.90
2389;DHT22;1205;47.984;7.668;2023-12-20T03:53:33;6.80;99.90
2389;DHT22;1205;47.984;7.668;2023-12-20T03:55:59;6.80;99.90
2389;DHT22;1205;47.984;7.668;2023-12-20T03:58:24;6.80;99.90
2389;DHT22;1205;47.984;7.668;2023-12-20T04:00:50;6.80;99.90
2389;DHT22;1205;47.984;7.668;2023-12-20T04:03:15;6.80;99.90
2389;DHT22;1205;47.984;7.668;2023-12-20T04:05:41;6.90;99.90
2389;DHT22;1205;47.984;7.668;2023-12-20T04:08:07;6.90;99.90
2389;DHT22;1205;47.984;7.668;2023-12-20T04:10:33;6.90;99.90
2389;DHT22;1205;47.984;7.668;2023-12-20T04:12:58;6.90;99.90
2389;DHT22;1205;47.984;7.668;2023-12-20T04:15:24;6.90;99.90
2389;DHT22;1205;47.984;7.668;2023-12-20T04:17:49;6.90;99.90
2389;DHT22;1205;47.984;7.668;2023-12-20T04:20:15;6.80;99.90
2389;DHT22;1205;47.984;7.668;2023-12-20T04:22:40;6.80;99.90
2389;DHT22;1205;47.984;7.668;2023-12-20T04:25:08;6.80;99.90
2389;DHT22;1205;47.984;7.668;2023-12-20T04:27:33;6.90;99.90
2389;DHT22;1205;47.984;7.668;2023-12-20T04:29:59;6.90;99.90
2389;DHT22;1205;47.984;7.668;2023-12-20T04:32:24;6.90;99.90
2389;DHT22;1205;47.984;7.668;2023-12-20T04:34:50;6.90;99.90
2389;DHT22;1205;47.984;7.668;2023-12-20T04:37:16;6.90;99.90
2389;DHT22;1205;47.984;7.668;2023-12-20T04:39:41;7.00;99.90
2389;DHT22;1205;47.984;7.668;2023-12-20T04:42:07;7.00;99.90
2389;DHT22;1205;47.984;7.668;2023-12-20T04:44:33;7.00;99.90
2389;DHT22;1205;47.984;7.668;2023-12-20T04:46:59;7.00;99.90
2389;DHT22;1205;47.984;7.668;2023-12-20T04:49:25;7.00;99.90
2389;DHT22;1205;47.984;7.668;2023-12-20T04:51:50;7.10;99.90
2389;DHT22;1205;47.984;7.668;2023-12-20T04:54:16;7.10;99.90
2389;DHT22;1205;47.984;7.668;2023-12-20T04:56:42;7.10;99.90
2389;DHT22;1205;47.984;7.668;2023-12-20T04:59:07;7.10;99.90
2389;DHT22;1205;47.984;7.668;2023-12-20T05:01:33;7.10;99.90
2389;DHT22;1205;47.984;7.668;2023-12-20T05:03:59;7.10;99.90
2389;DHT22;1205;47.984;7.668;2023-12-20T05:06:24;7.00;99.90
2389;DHT22;1205;47.984;7.668;2023-12-20T05:08:50;7.00;99.90
2389;DHT22;1205;47.984;7.668;2023-12-20T05:11:15;7.10;99.90
2389;DHT22;1205;47.984;7.668;2023-12-20T05:13:41;7.10;99.90
2389;DHT22;1205;47.984;7.668;2023-12-20T05:16:07;7.10;99.90
2389;DHT22;1205;47.984;7.668;2023-12-20T05:18:34;7.10;99.90
2389;DHT22;1205;47.984;7.668;2023-12-20T05:21:00;7.00;99.90
2389;DHT22;1205;47.984;7.668;2023-12-20T05:23:25;7.00;99.90
2389;DHT22;1205;47.984;7.668;2023-12-20T05:25:51;7.00;99.90
2389;DHT22;1205;47.984;7.668;2023-12-20T05:28:17;7.00;99.90
2389;DHT22;1205;47.984;7.668;2023-12-20T05:30:42;7.10;99.90
2389;DHT22;1205;47.984;7.668;2023-12-20T05:33:08;7.00;99.90
2389;DHT22;1205;47.984;7.668;2023-12-20T05:35:34;7.00;99.90
2389;DHT22;1205;47.984;7.668;2023-12-20T05:38:00;7.00;99.90
2389;DHT22;1205;47.984;7.668;2023-12-20T05:40:25;7.00;99.90
2389;DHT22;1205;47.984;7.668;2023-12-20T05:42:51;7.10;99.90
2389;DHT22;1205;47.984;7.668;2023-12-20T05:45:16;7.10;99.90
2389;DHT22;1205;47.984;7.668;2023-12-20T05:47:42;7.10;99.90
2389;DHT22;1205;47.984;7.668;2023-12-20T05:50:08;7.10;99.90
2389;DHT22;1205;47.984;7.668;2023-12-20T05:52:34;7.10;99.90
2389;DHT22;1205;47.984;7.668;2023-12-20T05:55:00;7.10;99.90
2389;DHT22;1205;47.984;7.668;2023-12-20T05:57:27;7.10;99.90
2389;DHT22;1205;47.984;7.668;2023-12-20T05:59:52;7.10;99.90
2389;DHT22;1205;47.984;7.668;2023-12-20T06:02:18;7.10;99.90
2389;DHT22;1205;47.984;7.668;2023-12-20T06:04:44;7.10;99.90
2389;DHT22;1205;47.984;7.668;2023-12-20T06:07:12;7.10;99.90
2389;DHT22;1205;47.984;7.668;2023-12-20T06:09:37;7.10;99.90
2389;DHT22;1205;47.984;7.668;2023-12-20T06:12:03;7.10;99.90
2389;DHT22;1205;47.984;7.668;2023-12-20T06:14:29;7.10;99.90
2389;DHT22;1205;47.984;7.668;2023-12-20T06:16:56;7.10;99.90
2389;DHT22;1205;47.984;7.668;2023-12-20T06:19:22;7.10;99.90
2389;DHT22;1205;47.984;7.668;2023-12-20T06:21:47;7.10;99.90
2389;DHT22;1205;47.984;7.668;2023-12-20T06:24:13;7.10;99.90
2389;DHT22;1205;47.984;7.668;2023-12-20T06:26:39;7.10;99.90
2389;DHT22;1205;47.984;7.668;2023-12-20T06:29:04;7.10;99.90
2389;DHT22;1205;47.984;7.668;2023-12-20T06:31:30;7.20;99.90
2389;DHT22;1205;47.984;7.668;2023-12-20T06:33:57;7.10;99.90
2389;DHT22;1205;47.984;7.668;2023-12-20T06:36:25;7.10;99.90
2389;DHT22;1205;47.984;7.668;2023-12-20T06:38:51;7.10;99.90
2389;DHT22;1205;47.984;7.668;2023-12-20T06:41:16;7.20;99.90
2389;DHT22;1205;47.984;7.668;2023-12-20T06:43:42;7.10;99.90
2389;DHT22;1205;47.984;7.668;2023-12-20T06:46:08;7.20;99.90
2389;DHT22;1205;47.984;7.668;2023-12-20T06:48:34;7.10;99.90
2389;DHT22;1205;47.984;7.668;2023-12-20T06:51:00;7.10;99.90
2389;DHT22;1205;47.984;7.668;2023-12-20T06:53:27;8.50;99.90
2389;DHT22;1205;47.984;7.668;2023-12-20T06:55:53;8.00;99.90
2389;DHT22;1205;47.984;7.668;2023-12-20T06:58:18;7.80;99.90
2389;DHT22;1205;47.984;7.668;2023-12-20T07:00:44;7.70;99.90
2389;DHT22;1205;47.984;7.668;2023-12-20T07:03:10;7.60;99.90
2389;DHT22;1205;47.984;7.668;2023-12-20T07:05:35;7.50;99.90
2389;DHT22;1205;47.984;7.668;2023-12-20T07:08:01;7.40;99.90
2389;DHT22;1205;47.984;7.668;2023-12-20T07:10:26;7.40;99.90
2389;DHT22;1205;47.984;7.668;2023-12-20T07:12:52;7.30;99.90
2389;DHT22;1205;47.984;7.668;2023-12-20T07:15:21;7.30;99.90
2389;DHT22;1205;47.984;7.668;2023-12-20T07:17:46;7.30;99.90
2389;DHT22;1205;47.984;7.668;2023-12-20T07:20:12;7.30;99.90
2389;DHT22;1205;47.984;7.668;2023-12-20T07:22:38;7.30;99.90
2389;DHT22;1205;47.984;7.668;2023-12-20T07:25:04;7.30;99.90
2389;DHT22;1205;47.984;7.668;2023-12-20T07:27:30;7.30;99.90
2389;DHT22;1205;47.984;7.668;2023-12-20T07:29:56;7.40;99.90
2389;DHT22;1205;47.984;7.668;2023-12-20T07:32:21;7.30;99.90
2389;DHT22;1205;47.984;7.668;2023-12-20T07:34:47;7.30;99.90
2389;DHT22;1205;47.984;7.668;2023-12-20T07:37:12;7.30;99.90
2389;DHT22;1205;47.984;7.668;2023-12-20T07:39:42;7.30;99.90
2389;DHT22;1205;47.984;7.668;2023-12-20T07:42:08;7.30;99.90
2389;DHT22;1205;47.984;7.668;2023-12-20T07:44:34;7.30;99.90
2389;DHT22;1205;47.984;7.668;2023-12-20T07:47:01;7.30;99.90
2389;DHT22;1205;47.984;7.668;2023-12-20T07:49:27;7.30;99.90
2389;DHT22;1205;47.984;7.668;2023-12-20T07:51:52;7.20;99.90
2389;DHT22;1205;47.984;7.668;2023-12-20T07:54:18;7.20;99.90
2389;DHT22;1205;47.984;7.668;2023-12-20T07:56:45;7.30;99.90
2389;DHT22;1205;47.984;7.668;2023-12-20T07:59:10;7.30;99.90
2389;DHT22;1205;47.984;7.668;2023-12-20T08:01:36;7.40;99.90
2389;DHT22;1205;47.984;7.668;2023-12-20T08:04:01;7.40;99.90
2389;DHT22;1205;47.984;7.668;2023-12-20T08:06:27;7.40;99.90
2389;DHT22;1205;47.984;7.668;2023-12-20T08:08:52;7.50;99.90
2389;DHT22;1205;47.984;7.668;2023-12-20T08:11:18;8.30;99.90
2389;DHT22;1205;47.984;7.668;2023-12-20T08:13:44;9.00;99.90
2389;DHT22;1205;47.984;7.668;2023-12-20T08:16:09;9.20;99.90
2389;DHT22;1205;47.984;7.668;2023-12-20T08:18:35;9.50;99.90
2389;DHT22;1205;47.984;7.668;2023-12-20T08:21:01;9.40;99.90
2389;DHT22;1205;47.984;7.668;2023-12-20T08:23:27;8.90;99.90
2389;DHT22;1205;47.984;7.668;2023-12-20T08:25:52;8.60;99.90
2389;DHT22;1205;47.984;7.668;2023-12-20T08:28:18;8.60;99.90
2389;DHT22;1205;47.984;7.668;2023-12-20T08:30:43;8.40;99.90
2389;DHT22;1205;47.984;7.668;2023-12-20T08:33:09;8.20;99.90
2389;DHT22;1205;47.984;7.668;2023-12-20T08:35:40;8.10;99.90
2389;DHT22;1205;47.984;7.668;2023-12-20T08:38:07;8.10;99.90
2389;DHT22;1205;47.984;7.668;2023-12-20T08:40:32;8.10;99.90
2389;DHT22;1205;47.984;7.668;2023-12-20T08:42:58;8.10;99.90
2389;DHT22;1205;47.984;7.668;2023-12-20T08:45:23;8.10;99.90
2389;DHT22;1205;47.984;7.668;2023-12-20T08:47:49;8.10;99.90
2389;DHT22;1205;47.984;7.668;2023-12-20T08:50:15;8.10;99.90
2389;DHT22;1205;47.984;7.668;2023-12-20T08:52:41;8.20;99.90
2389;DHT22;1205;47.984;7.668;2023-12-20T08:55:07;8.10;99.90
2389;DHT22;1205;47.984;7.668;2023-12-20T08:57:33;8.10;99.90
2389;DHT22;1205;47.984;7.668;2023-12-20T08:59:59;8.20;99.90
2389;DHT22;1205;47.984;7.668;2023-12-20T09:02:24;8.30;99.90
2389;DHT22;1205;47.984;7.668;2023-12-20T09:04:50;8.30;99.90
2389;DHT22;1205;47.984;7.668;2023-12-20T09:07:26;8.20;99.90
2389;DHT22;1205;47.984;7.668;2023-12-20T09:09:53;8.20;99.90
2389;DHT22;1205;47.984;7.668;2023-12-20T09:12:19;8.20;99.90
2389;DHT22;1205;47.984;7.668;2023-12-20T09:14:48;8.10;99.90
2389;DHT22;1205;47.984;7.668;2023-12-20T09:17:14;8.10;99.90
2389;DHT22;1205;47.984;7.668;2023-12-20T09:19:40;8.20;99.90
2389;DHT22;1205;47.984;7.668;2023-12-20T09:22:06;8.20;99.90
2389;DHT22;1205;47.984;7.668;2023-12-20T09:24:31;8.20;99.90
2389;DHT22;1205;47.984;7.668;2023-12-20T09:26:57;8.10;99.90
2389;DHT22;1205;47.984;7.668;2023-12-20T09:29:23;8.00;99.90
2389;DHT22;1205;47.984;7.668;2023-12-20T09:31:50;8.00;99.90
2389;DHT22;1205;47.984;7.668;2023-12-20T09:34:16;8.00;99.90
2389;DHT22;1205;47.984;7.668;2023-12-20T09:36:42;8.00;99.90
2389;DHT22;1205;47.984;7.668;2023-12-20T09:39:13;7.80;99.90
2389;DHT22;1205;47.984;7.668;2023-12-20T09:41:43;7.70;99.90
2389;DHT22;1205;47.984;7.668;2023-12-20T09:44:13;7.60;99.90
2389;DHT22;1205;47.984;7.668;2023-12-20T09:46:43;7.60;99.90
2389;DHT22;1205;47.984;7.668;2023-12-20T09:49:09;7.40;99.90
2389;DHT22;1205;47.984;7.668;2023-12-20T09:51:36;7.40;99.90
2389;DHT22;1205;47.984;7.668;2023-12-20T09:54:03;7.40;99.90
2389;DHT22;1205;47.984;7.668;2023-12-20T09:56:30;7.50;99.90
2389;DHT22;1205;47.984;7.668;2023-12-20T09:58:56;7.60;99.90
2389;DHT22;1205;47.984;7.668;2023-12-20T10:01:21;7.70;99.90
2389;DHT22;1205;47.984;7.668;2023-12-20T10:03:47;7.60;99.90
2389;DHT22;1205;47.984;7.668;2023-12-20T10:06:13;7.70;99.90
2389;DHT22;1205;47.984;7.668;2023-12-20T10:08:39;7.80;99.90
2389;DHT22;1205;47.984;7.668;2023-12-20T10:11:05;7.90;99.90
2389;DHT22;1205;47.984;7.668;2023-12-20T10:13:31;7.90;99.90
2389;DHT22;1205;47.984;7.668;2023-12-20T10:15:56;7.90;99.90
2389;DHT22;1205;47.984;7.668;2023-12-20T10:18:22;7.70;99.90
2389;DHT22;1205;47.984;7.668;2023-12-20T10:20:48;7.70;99.90
2389;DHT22;1205;47.984;7.668;2023-12-20T10:23:15;7.60;99.90
2389;DHT22;1205;47.984;7.668;2023-12-20T10:25:41;7.60;99.90
2389;DHT22;1205;47.984;7.668;2023-12-20T10:28:11;7.40;99.90
2389;DHT22;1205;47.984;7.668;2023-12-20T10:30:37;7.40;99.90
2389;DHT22;1205;47.984;7.668;2023-12-20T10:33:06;7.40;99.90
2389;DHT22;1205;47.984;7.668;2023-12-20T10:35:32;7.40;99.90
2389;DHT22;1205;47.984;7.668;2023-12-20T10:37:58;7.40;99.90
2389;DHT22;1205;47.984;7.668;2023-12-20T10:40:27;7.40;99.90
2389;DHT22;1205;47.984;7.668;2023-12-20T10:42:56;7.50;99.90
2389;DHT22;1205;47.984;7.668;2023-12-20T10:45:22;7.50;99.90
2389;DHT22;1205;47.984;7.668;2023-12-20T10:47:50;7.60;99.90
2389;DHT22;1205;47.984;7.668;2023-12-20T10:50:16;8.20;99.90
2389;DHT22;1205;47.984;7.668;2023-12-20T10:52:42;8.00;99.90
2389;DHT22;1205;47.984;7.668;2023-12-20T10:55:10;7.90;99.90
2389;DHT22;1205;47.984;7.668;2023-12-20T10:57:36;7.80;99.90
2389;DHT22;1205;47.984;7.668;2023-12-20T11:00:02;7.80;99.90
2389;DHT22;1205;47.984;7.668;2023-12-20T11:02:38;7.80;99.90
2389;DHT22;1205;47.984;7.668;2023-12-20T11:05:18;7.80;99.90
2389;DHT22;1205;47.984;7.668;2023-12-20T11:07:54;7.90;99.90
2389;DHT22;1205;47.984;7.668;2023-12-20T11:10:30;7.90;99.90
2389;DHT22;1205;47.984;7.668;2023-12-20T11:13:10;7.90;99.90
2389;DHT22;1205;47.984;7.668;2023-12-20T11:15:37;8.00;99.90
2389;DHT22;1205;47.984;7.668;2023-12-20T11:18:04;8.00;99.90
2389;DHT22;1205;47.984;7.668;2023-12-20T11:20:41;8.00;99.90
2389;DHT22;1205;47.984;7.668;2023-12-20T11:23:08;7.90;99.90
2389;DHT22;1205;47.984;7.668;2023-12-20T11:25:50;7.90;99.90
2389;DHT22;1205;47.984;7.668;2023-12-20T11:28:21;8.00;99.90
2389;DHT22;1205;47.984;7.668;2023-12-20T11:30:55;8.30;99.90
2389;DHT22;1205;47.984;7.668;2023-12-20T11:33:25;8.10;99.90
2389;DHT22;1205;47.984;7.668;2023-12-20T11:35:51;8.00;99.90
2389;DHT22;1205;47.984;7.668;2023-12-20T11:38:20;7.90;99.90
2389;DHT22;1205;47.984;7.668;2023-12-20T11:40:48;8.00;99.90
2389;DHT22;1205;47.984;7.668;2023-12-20T11:43:35;7.90;99.90
2389;DHT22;1205;47.984;7.668;2023-12-20T11:46:08;7.80;99.90
2389;DHT22;1205;47.984;7.668;2023-12-20T11:48:37;7.90;99.90
2389;DHT22;1205;47.984;7.668;2023-12-20T11:51:02;7.90;99.90
2389;DHT22;1205;47.984;7.668;2023-12-20T11:53:34;7.90;99.90
2389;DHT22;1205;47.984;7.668;2023-12-20T11:56:00;7.90;99.90
2389;DHT22;1205;47.984;7.668;2023-12-20T11:58:28;8.00;99.90
2389;DHT22;1205;47.984;7.668;2023-12-20T12:00:55;8.00;99.90
2389;DHT22;1205;47.984;7.668;2023-12-20T12:03:20;8.10;99.90
2389;DHT22;1205;47.984;7.668;2023-12-20T12:05:47;8.20;99.90
2389;DHT22;1205;47.984;7.668;2023-12-20T12:08:13;8.30;99.90
2389;DHT22;1205;47.984;7.668;2023-12-20T12:10:39;8.40;99.90
2389;DHT22;1205;47.984;7.668;2023-12-20T12:13:05;8.40;99.90
2389;DHT22;1205;47.984;7.668;2023-12-20T12:15:30;8.50;99.90
2389;DHT22;1205;47.984;7.668;2023-12-20T12:17:57;8.50;99.90
2389;DHT22;1205;47.984;7.668;2023-12-20T12:20:23;8.60;99.90
2389;DHT22;1205;47.984;7.668;2023-12-20T12:23:04;8.70;99.90
2389;DHT22;1205;47.984;7.668;2023-12-20T12:25:31;8.60;99.90
2389;DHT22;1205;47.984;7.668;2023-12-20T12:27:58;8.70;99.90
2389;DHT22;1205;47.984;7.668;2023-12-20T12:30:23;8.60;99.90
2389;DHT22;1205;47.984;7.668;2023-12-20T12:32:51;8.50;99.90
2389;DHT22;1205;47.984;7.668;2023-12-20T12:35:17;8.40;99.90
2389;DHT22;1205;47.984;7.668;2023-12-20T12:37:43;8.40;99.90
2389;DHT22;1205;47.984;7.668;2023-12-20T12:40:13;8.40;99.90
2389;DHT22;1205;47.984;7.668;2023-12-20T12:42:40;8.40;99.90
2389;DHT22;1205;47.984;7.668;2023-12-20T12:45:07;8.40;99.90
2389;DHT22;1205;47.984;7.668;2023-12-20T12:47:33;8.40;99.90
2389;DHT22;1205;47.984;7.668;2023-12-20T12:49:59;8.30;99.90
2389;DHT22;1205;47.984;7.668;2023-12-20T12:52:24;8.30;99.90
2389;DHT22;1205;47.984;7.668;2023-12-20T12:54:52;8.40;99.90
2389;DHT22;1205;47.984;7.668;2023-12-20T12:57:17;8.40;99.90
2389;DHT22;1205;47.984;7.668;2023-12-20T12:59:44;8.40;99.90
2389;DHT22;1205;47.984;7.668;2023-12-20T13:02:14;8.40;99.90
2389;DHT22;1205;47.984;7.668;2023-12-20T13:04:41;8.40;99.90
2389;DHT22;1205;47.984;7.668;2023-12-20T13:07:09;8.40;99.90
2389;DHT22;1205;47.984;7.668;2023-12-20T13:09:37;8.40;99.90
2389;DHT22;1205;47.984;7.668;2023-12-20T13:12:04;8.50;99.90
2389;DHT22;1205;47.984;7.668;2023-12-20T13:14:33;8.40;99.90
2389;DHT22;1205;47.984;7.668;2023-12-20T13:17:00;8.40;99.90
2389;DHT22;1205;47.984;7.668;2023-12-20T13:19:26;8.30;99.90
2389;DHT22;1205;47.984;7.668;2023-12-20T13:21:51;8.30;99.90
2389;DHT22;1205;47.984;7.668;2023-12-20T13:24:17;8.30;99.90
2389;DHT22;1205;47.984;7.668;2023-12-20T13:26:44;8.40;99.90
2389;DHT22;1205;47.984;7.668;2023-12-20T13:29:09;8.30;99.90
2389;DHT22;1205;47.984;7.668;2023-12-20T13:31:35;8.40;99.90
2389;DHT22;1205;47.984;7.668;2023-12-20T13:34:01;8.40;99.90
2389;DHT22;1205;47.984;7.668;2023-12-20T13:36:27;8.40;99.90
2389;DHT22;1205;47.984;7.668;2023-12-20T13:38:53;8.40;99.90
2389;DHT22;1205;47.984;7.668;2023-12-20T13:41:19;8.50;99.90
2389;DHT22;1205;47.984;7.668;2023-12-20T13:43:45;8.50;99.90
2389;DHT22;1205;47.984;7.668;2023-12-20T13:46:11;8.40;99.90
2389;DHT22;1205;47.984;7.668;2023-12-20T13:48:36;8.40;99.90
2389;DHT22;1205;47.984;7.668;2023-12-20T13:51:02;8.30;99.90
2389;DHT22;1205;47.984;7.668;2023-12-20T13:53:28;8.30;99.90
2389;DHT22;1205;47.984;7.668;2023-12-20T13:55:54;8.30;99.90
2389;DHT22;1205;47.984;7.668;2023-12-20T13:58:19;8.40;99.90
2389;DHT22;1205;47.984;7.668;2023-12-20T14:00:45;8.50;99.90
2389;DHT22;1205;47.984;7.668;2023-12-20T14:03:11;8.60;99.90
2389;DHT22;1205;47.984;7.668;2023-12-20T14:05:36;8.70;99.90
2389;DHT22;1205;47.984;7.668;2023-12-20T14:08:03;8.70;99.90
2389;DHT22;1205;47.984;7.668;2023-12-20T14:10:28;8.70;99.90
2389;DHT22;1205;47.984;7.668;2023-12-20T14:12:54;8.80;99.90
2389;DHT22;1205;47.984;7.668;2023-12-20T14:15:20;8.70;99.90
2389;DHT22;1205;47.984;7.668;2023-12-20T14:17:46;8.70;99.90
2389;DHT22;1205;47.984;7.668;2023-12-20T14:20:12;8.70;99.90
2389;DHT22;1205;47.984;7.668;2023-12-20T14:22:38;8.80;99.90
2389;DHT22;1205;47.984;7.668;2023-12-20T14:25:10;8.70;99.90
2389;DHT22;1205;47.984;7.668;2023-12-20T14:27:37;8.70;99.90
2389;DHT22;1205;47.984;7.668;2023-12-20T14:30:03;8.70;99.90
2389;DHT22;1205;47.984;7.668;2023-12-20T14:32:29;8.60;99.90
2389;DHT22;1205;47.984;7.668;2023-12-20T14:34:54;8.30;99.90
2389;DHT22;1205;47.984;7.668;2023-12-20T14:37:20;8.20;99.90
2389;DHT22;1205;47.984;7.668;2023-12-20T14:39:46;8.10;99.90
2389;DHT22;1205;47.984;7.668;2023-12-20T14:42:11;7.90;99.90
2389;DHT22;1205;47.984;7.668;2023-12-20T14:44:42;7.80;99.90
2389;DHT22;1205;47.984;7.668;2023-12-20T14:47:07;7.80;99.90
2389;DHT22;1205;47.984;7.668;2023-12-20T14:49:33;7.80;99.90
2389;DHT22;1205;47.984;7.668;2023-12-20T14:51:59;7.80;99.90
2389;DHT22;1205;47.984;7.668;2023-12-20T14:54:25;7.80;99.90
2389;DHT22;1205;47.984;7.668;2023-12-20T14:56:50;7.70;99.90
2389;DHT22;1205;47.984;7.668;2023-12-20T14:59:16;7.80;99.90
2389;DHT22;1205;47.984;7.668;2023-12-20T15:01:42;7.60;99.90
2389;DHT22;1205;47.984;7.668;2023-12-20T15:04:09;7.70;99.90
2389;DHT22;1205;47.984;7.668;2023-12-20T15:06:35;7.70;99.90
2389;DHT22;1205;47.984;7.668;2023-12-20T15:09:01;7.80;99.90
2389;DHT22;1205;47.984;7.668;2023-12-20T15:11:30;7.80;99.90
2389;DHT22;1205;47.984;7.668;2023-12-20T15:13:56;7.90;99.90
2389;DHT22;1205;47.984;7.668;2023-12-20T15:16:22;7.90;99.90
2389;DHT22;1205;47.984;7.668;2023-12-20T15:18:48;7.80;99.90
2389;DHT22;1205;47.984;7.668;2023-12-20T15:21:14;7.90;99.90
2389;DHT22;1205;47.984;7.668;2023-12-20T15:23:40;7.90;99.90
2389;DHT22;1205;47.984;7.668;2023-12-20T15:26:16;7.90;99.90
2389;DHT22;1205;47.984;7.668;2023-12-20T15:28:41;7.70;99.90
2389;DHT22;1205;47.984;7.668;2023-12-20T15:31:08;7.70;99.90
2389;DHT22;1205;47.984;7.668;2023-12-20T15:33:33;7.60;99.90
2389;DHT22;1205;47.984;7.668;2023-12-20T15:35:59;7.40;99.90
2389;DHT22;1205;47.984;7.668;2023-12-20T15:38:24;7.40;99.90
2389;DHT22;1205;47.984;7.668;2023-12-20T15:40:50;7.20;99.90
2389;DHT22;1205;47.984;7.668;2023-12-20T15:43:15;7.20;99.90
2389;DHT22;1205;47.984;7.668;2023-12-20T15:45:41;7.20;99.90
2389;DHT22;1205;47.984;7.668;2023-12-20T15:48:06;7.10;99.90
2389;DHT22;1205;47.984;7.668;2023-12-20T15:50:32;7.10;99.90
2389;DHT22;1205;47.984;7.668;2023-12-20T15:52:58;7.00;99.90
2389;DHT22;1205;47.984;7.668;2023-12-20T15:55:23;6.90;99.90
2389;DHT22;1205;47.984;7.668;2023-12-20T15:57:49;6.80;99.90
2389;DHT22;1205;47.984;7.668;2023-12-20T16:00:15;6.80;99.90
2389;DHT22;1205;47.984;7.668;2023-12-20T16:02:41;6.70;99.90
2389;DHT22;1205;47.984;7.668;2023-12-20T16:05:07;6.70;99.90
2389;DHT22;1205;47.984;7.668;2023-12-20T16:07:33;6.60;99.90
2389;DHT22;1205;47.984;7.668;2023-12-20T16:09:58;6.60;99.90